createdAt,value
2023-04-30T08:01:11.411Z,520.00
2023-04-30T08:02:11.420Z,519.00
2023-04-30T08:03:11.505Z,519.00
2023-04-30T08:04:11.570Z,519.00
2023-04-30T08:05:11.501Z,517.00
2023-04-30T08:06:11.633Z,517.00
2023-04-30T08:07:11.583Z,519.00
2023-04-30T08:08:11.652Z,520.00
2023-04-30T08:09:11.666Z,521.00
2023-04-30T08:10:11.684Z,519.00
2023-04-30T08:11:11.694Z,517.00
2023-04-30T08:12:11.725Z,516.00
2023-04-30T08:13:11.737Z,513.00
2023-04-30T08:14:11.738Z,512.00
2023-04-30T08:15:11.796Z,513.00
2023-04-30T08:16:11.916Z,512.00
2023-04-30T08:17:11.929Z,512.00
2023-04-30T08:18:11.994Z,512.00
2023-04-30T08:19:11.994Z,513.00
2023-04-30T08:20:12.109Z,511.00
2023-04-30T08:21:12.254Z,513.00
2023-04-30T08:22:12.185Z,514.00
2023-04-30T08:23:12.221Z,516.00
2023-04-30T08:24:12.300Z,518.00
2023-04-30T08:25:12.324Z,519.00
2023-04-30T08:26:12.410Z,520.00
2023-04-30T08:27:12.428Z,520.00
2023-04-30T08:28:12.499Z,521.00
2023-04-30T08:29:12.545Z,520.00
2023-04-30T08:30:12.603Z,520.00
2023-04-30T08:31:12.634Z,523.00
2023-04-30T08:32:12.788Z,520.00
2023-04-30T08:33:12.774Z,520.00
2023-04-30T08:34:12.825Z,517.00
2023-04-30T08:35:12.865Z,518.00
2023-04-30T08:36:12.929Z,521.00
2023-04-30T08:37:12.963Z,520.00
2023-04-30T08:38:13.016Z,519.00
2023-04-30T08:39:13.061Z,519.00
2023-04-30T08:40:13.100Z,519.00
2023-04-30T08:41:13.248Z,518.00
2023-04-30T08:42:13.209Z,521.00
2023-04-30T08:43:13.256Z,520.00
2023-04-30T08:44:13.303Z,521.00
2023-04-30T08:45:13.316Z,519.00
2023-04-30T08:46:13.442Z,520.00
2023-04-30T08:47:13.418Z,522.00
2023-04-30T08:48:13.507Z,521.00
2023-04-30T08:49:13.554Z,517.00
2023-04-30T08:50:13.610Z,518.00
2023-04-30T08:51:13.623Z,520.00
2023-04-30T08:52:13.660Z,522.00
2023-04-30T08:53:13.750Z,524.00
2023-04-30T08:54:13.811Z,523.00
2023-04-30T08:55:13.859Z,522.00
2023-04-30T08:56:13.875Z,521.00
2023-04-30T08:57:13.923Z,522.00
2023-04-30T08:58:13.979Z,522.00
2023-04-30T08:59:14.024Z,522.00
2023-04-30T09:00:14.048Z,522.00
2023-04-30T09:01:14.245Z,524.00
2023-04-30T09:02:14.322Z,522.00
2023-04-30T09:03:14.302Z,521.00
2023-04-30T09:04:14.261Z,521.00
2023-04-30T09:05:14.318Z,521.00
2023-04-30T09:06:14.333Z,520.00
2023-04-30T09:07:14.402Z,518.00
2023-04-30T09:08:14.425Z,516.00
2023-04-30T09:09:14.483Z,515.00
2023-04-30T09:10:14.543Z,517.00
2023-04-30T09:11:14.557Z,516.00
2023-04-30T09:12:16.297Z,517.00
2023-04-30T09:13:14.621Z,516.00
2023-04-30T09:14:14.607Z,518.00
2023-04-30T09:15:14.571Z,518.00
2023-04-30T09:16:14.790Z,517.00
2023-04-30T09:17:14.561Z,518.00
2023-04-30T09:18:14.624Z,520.00
2023-04-30T09:19:14.546Z,521.00
2023-04-30T09:20:14.544Z,519.00
2023-04-30T09:21:14.641Z,519.00
2023-04-30T09:22:14.558Z,521.00
2023-04-30T09:23:14.520Z,521.00
2023-04-30T09:24:16.050Z,520.00
2023-04-30T09:25:14.528Z,521.00
2023-04-30T09:26:14.475Z,521.00
2023-04-30T09:27:14.490Z,521.00
2023-04-30T09:28:14.462Z,521.00
2023-04-30T09:29:14.481Z,520.00
2023-04-30T09:30:14.618Z,521.00
2023-04-30T09:31:14.495Z,520.00
2023-04-30T09:32:14.474Z,523.00
2023-04-30T09:33:14.524Z,523.00
2023-04-30T09:34:14.521Z,520.00
2023-04-30T09:35:14.559Z,519.00
2023-04-30T09:36:14.615Z,520.00
2023-04-30T09:37:14.651Z,520.00
2023-04-30T09:38:14.723Z,519.00
2023-04-30T09:39:16.059Z,517.00
2023-04-30T09:40:14.787Z,518.00
2023-04-30T09:41:16.612Z,516.00
2023-04-30T09:42:14.832Z,518.00
2023-04-30T09:43:14.897Z,518.00
2023-04-30T09:44:14.923Z,519.00
2023-04-30T09:45:14.934Z,520.00
2023-04-30T09:46:15.053Z,522.00
2023-04-30T09:47:15.026Z,519.00
2023-04-30T09:48:17.497Z,519.00
2023-04-30T09:49:15.057Z,519.00
2023-04-30T09:50:15.028Z,519.00
2023-04-30T09:51:15.074Z,520.00
2023-04-30T09:52:15.019Z,519.00
2023-04-30T09:53:15.031Z,521.00
2023-04-30T09:54:14.995Z,521.00
2023-04-30T09:55:15.010Z,521.00
2023-04-30T09:56:14.999Z,522.00
2023-04-30T09:57:15.025Z,523.00
2023-04-30T09:58:14.986Z,523.00
2023-04-30T09:59:14.987Z,521.00
2023-04-30T10:00:15.007Z,519.00
2023-04-30T10:01:15.121Z,518.00
2023-04-30T10:02:14.994Z,515.00
2023-04-30T10:03:14.969Z,517.00
2023-04-30T10:04:14.986Z,517.00
2023-04-30T10:05:14.954Z,519.00
2023-04-30T10:06:14.954Z,518.00
2023-04-30T10:07:16.306Z,524.00
2023-04-30T10:08:14.914Z,525.00
2023-04-30T10:09:14.924Z,526.00
2023-04-30T10:10:14.947Z,524.00
2023-04-30T10:11:14.901Z,524.00
2023-04-30T10:12:14.906Z,521.00
2023-04-30T10:13:14.870Z,520.00
2023-04-30T10:14:14.941Z,521.00
2023-04-30T10:15:14.983Z,524.00
2023-04-30T10:16:14.995Z,520.00
2023-04-30T10:17:15.014Z,519.00
2023-04-30T10:18:15.059Z,519.00
2023-04-30T10:19:15.085Z,520.00
2023-04-30T10:20:15.170Z,519.00
2023-04-30T10:21:15.164Z,517.00
2023-04-30T10:22:15.191Z,516.00
2023-04-30T10:23:15.225Z,517.00
2023-04-30T10:24:15.249Z,519.00
2023-04-30T10:25:15.324Z,522.00
2023-04-30T10:26:15.332Z,522.00
2023-04-30T10:27:15.383Z,521.00
2023-04-30T10:28:15.397Z,522.00
2023-04-30T10:29:15.445Z,521.00
2023-04-30T10:30:15.486Z,519.00
2023-04-30T10:31:15.513Z,519.00
2023-04-30T10:32:15.600Z,520.00
2023-04-30T10:33:16.592Z,521.00
2023-04-30T10:34:15.616Z,520.00
2023-04-30T10:35:15.655Z,520.00
2023-04-30T10:36:15.707Z,520.00
2023-04-30T10:37:15.729Z,521.00
2023-04-30T10:38:15.795Z,525.00
2023-04-30T10:39:15.805Z,526.00
2023-04-30T10:40:15.863Z,526.00
2023-04-30T10:41:15.908Z,521.00
2023-04-30T10:42:15.919Z,522.00
2023-04-30T10:43:15.949Z,520.00
2023-04-30T10:44:15.973Z,519.00
2023-04-30T10:45:16.003Z,519.00
2023-04-30T10:46:16.092Z,520.00
2023-04-30T10:47:16.079Z,521.00
2023-04-30T10:48:16.182Z,519.00
2023-04-30T10:49:16.121Z,518.00
2023-04-30T10:50:16.159Z,518.00
2023-04-30T10:51:16.193Z,518.00
2023-04-30T10:52:16.220Z,517.00
2023-04-30T10:53:16.254Z,519.00
2023-04-30T10:54:16.313Z,518.00
2023-04-30T10:55:16.332Z,519.00
2023-04-30T10:56:16.343Z,521.00
2023-04-30T10:57:16.372Z,519.00
2023-04-30T10:58:16.425Z,519.00
2023-04-30T10:59:16.450Z,521.00
2023-04-30T11:00:16.503Z,520.00
2023-04-30T11:01:16.618Z,519.00
2023-04-30T11:02:16.496Z,517.00
2023-04-30T11:03:16.555Z,516.00
2023-04-30T11:04:16.659Z,516.00
2023-04-30T11:05:16.641Z,517.00
2023-04-30T11:06:16.658Z,515.00
2023-04-30T11:07:16.669Z,517.00
2023-04-30T11:08:16.689Z,519.00
2023-04-30T11:09:16.728Z,519.00
2023-04-30T11:10:16.786Z,520.00
2023-04-30T11:11:16.747Z,521.00
2023-04-30T11:12:16.805Z,519.00
2023-04-30T11:13:16.830Z,519.00
2023-04-30T11:14:16.845Z,519.00
2023-04-30T11:15:16.894Z,518.00
2023-04-30T11:16:16.972Z,519.00
2023-04-30T11:17:16.935Z,519.00
2023-04-30T11:18:16.931Z,520.00
2023-04-30T11:19:16.967Z,523.00
2023-04-30T11:20:17.005Z,526.00
2023-04-30T11:21:17.050Z,528.00
2023-04-30T11:22:17.064Z,531.00
2023-04-30T11:23:22.173Z,532.00
2023-04-30T11:24:18.053Z,533.00
2023-04-30T11:25:17.045Z,532.00
2023-04-30T11:26:17.034Z,527.00
2023-04-30T11:27:17.036Z,523.00
2023-04-30T11:28:16.997Z,524.00
2023-04-30T11:29:17.075Z,523.00
2023-04-30T11:30:17.062Z,523.00
2023-04-30T11:31:17.081Z,521.00
2023-04-30T11:32:16.975Z,521.00
2023-04-30T11:33:17.018Z,524.00
2023-04-30T11:34:16.986Z,524.00
2023-04-30T11:35:16.984Z,521.00
2023-04-30T11:36:16.987Z,520.00
2023-04-30T11:37:16.997Z,519.00
2023-04-30T11:38:16.972Z,519.00
2023-04-30T11:39:16.959Z,522.00
2023-04-30T11:40:16.941Z,522.00
2023-04-30T11:41:16.966Z,522.00
2023-04-30T11:42:16.949Z,520.00
2023-04-30T11:43:16.996Z,517.00
2023-04-30T11:44:17.030Z,516.00
2023-04-30T11:45:17.024Z,517.00
2023-04-30T11:46:17.018Z,516.00
2023-04-30T11:47:17.024Z,519.00
2023-04-30T11:48:17.083Z,520.00
2023-04-30T11:49:17.103Z,521.00
2023-04-30T11:50:17.138Z,519.00
2023-04-30T11:51:17.116Z,519.00
2023-04-30T11:52:17.129Z,519.00
2023-04-30T11:53:17.186Z,520.00
2023-04-30T11:54:17.167Z,520.00
2023-04-30T11:55:17.238Z,519.00
2023-04-30T11:56:17.242Z,520.00
2023-04-30T11:57:17.268Z,522.00
2023-04-30T11:58:17.264Z,519.00
2023-04-30T11:59:17.295Z,520.00
2023-04-30T12:00:17.321Z,519.00
2023-04-30T12:01:18.155Z,522.00
2023-04-30T12:02:17.394Z,521.00
2023-04-30T12:03:17.482Z,523.00
2023-04-30T12:04:17.443Z,523.00
2023-04-30T12:05:17.420Z,523.00
2023-04-30T12:06:17.461Z,522.00
2023-04-30T12:07:17.450Z,522.00
2023-04-30T12:08:17.479Z,521.00
2023-04-30T12:09:17.483Z,521.00
2023-04-30T12:10:17.506Z,522.00
2023-04-30T12:11:17.572Z,522.00
2023-04-30T12:12:17.536Z,524.00
2023-04-30T12:13:17.586Z,524.00
2023-04-30T12:14:17.584Z,525.00
2023-04-30T12:15:17.610Z,523.00
2023-04-30T12:16:17.668Z,524.00
2023-04-30T12:17:17.635Z,522.00
2023-04-30T12:18:17.667Z,520.00
2023-04-30T12:19:17.711Z,518.00
2023-04-30T12:20:17.748Z,517.00
2023-04-30T12:21:17.734Z,514.00
2023-04-30T12:22:17.749Z,514.00
2023-04-30T12:23:17.752Z,515.00
2023-04-30T12:24:17.784Z,515.00
2023-04-30T12:25:17.773Z,512.00
2023-04-30T12:26:17.876Z,513.00
2023-04-30T12:27:17.847Z,512.00
2023-04-30T12:28:17.857Z,510.00
2023-04-30T12:29:17.941Z,511.00
2023-04-30T12:30:17.891Z,511.00
2023-04-30T12:31:17.926Z,514.00
2023-04-30T12:32:18.024Z,514.00
2023-04-30T12:33:18.099Z,515.00
2023-04-30T12:34:18.003Z,516.00
2023-04-30T12:35:18.009Z,517.00
2023-04-30T12:36:18.035Z,518.00
2023-04-30T12:37:18.034Z,517.00
2023-04-30T12:38:18.038Z,515.00
2023-04-30T12:39:18.031Z,515.00
2023-04-30T12:40:18.080Z,516.00
2023-04-30T12:41:18.074Z,516.00
2023-04-30T12:42:18.092Z,514.00
2023-04-30T12:43:18.116Z,513.00
2023-04-30T12:44:18.142Z,508.00
2023-04-30T12:45:18.153Z,508.00
2023-04-30T12:46:18.194Z,508.00
2023-04-30T12:47:18.174Z,511.00
2023-04-30T12:48:18.233Z,513.00
2023-04-30T12:49:18.227Z,516.00
2023-04-30T12:50:18.239Z,515.00
2023-04-30T12:51:18.250Z,517.00
2023-04-30T12:52:18.279Z,516.00
2023-04-30T12:53:18.279Z,514.00
2023-04-30T12:54:18.266Z,516.00
2023-04-30T12:55:18.316Z,517.00
2023-04-30T12:56:18.300Z,516.00
2023-04-30T12:57:18.339Z,517.00
2023-04-30T12:58:18.322Z,517.00
2023-04-30T12:59:18.359Z,517.00
2023-04-30T13:00:18.365Z,516.00
